sensor_id;sensor_type;location;lat;lon;timestamp;P1;durP1;ratioP1;P2;durP2;ratioP2
62633;SDS011;48704;50.534;6.442;2023-01-19T00:01:32;7.03;;;3.88;;
62633;SDS011;48704;50.534;6.442;2023-01-19T00:03:58;6.05;;;3.03;;
62633;SDS011;48704;50.534;6.442;2023-01-19T00:06:23;7.15;;;3.63;;
62633;SDS011;48704;50.534;6.442;2023-01-19T00:08:48;7.63;;;4.32;;
62633;SDS011;48704;50.534;6.442;2023-01-19T00:11:16;6.32;;;3.30;;
62633;SDS011;48704;50.534;6.442;2023-01-19T00:13:42;6.60;;;3.60;;
62633;SDS011;48704;50.534;6.442;2023-01-19T00:16:14;4.43;;;2.83;;
62633;SDS011;48704;50.534;6.442;2023-01-19T00:18:46;3.33;;;1.73;;
62633;SDS011;48704;50.534;6.442;2023-01-19T00:21:14;2.20;;;1.60;;
62633;SDS011;48704;50.534;6.442;2023-01-19T10:15:02;13.63;;;5.70;;
62633;SDS011;48704;50.534;6.442;2023-01-19T10:17:38;14.88;;;6.20;;
62633;SDS011;48704;50.534;6.442;2023-01-19T10:20:25;14.60;;;5.85;;
62633;SDS011;48704;50.534;6.442;2023-01-19T10:22:53;10.75;;;5.50;;
62633;SDS011;48704;50.534;6.442;2023-01-19T10:25:21;10.10;;;5.63;;
62633;SDS011;48704;50.534;6.442;2023-01-19T10:27:48;10.60;;;5.55;;
62633;SDS011;48704;50.534;6.442;2023-01-19T10:30:24;13.40;;;5.28;;
62633;SDS011;48704;50.534;6.442;2023-01-19T10:32:52;12.50;;;5.45;;
62633;SDS011;48704;50.534;6.442;2023-01-19T10:35:20;14.07;;;5.20;;
62633;SDS011;48704;50.534;6.442;2023-01-19T10:37:49;6.15;;;3.17;;
62633;SDS011;48704;50.534;6.442;2023-01-19T10:40:23;6.30;;;2.97;;
62633;SDS011;48704;50.534;6.442;2023-01-19T10:46:04;13.02;;;5.72;;
62633;SDS011;48704;50.534;6.442;2023-01-19T10:48:40;17.65;;;5.53;;
62633;SDS011;48704;50.534;6.442;2023-01-19T10:51:06;12.52;;;5.15;;
62633;SDS011;48704;50.534;6.442;2023-01-19T10:53:33;9.82;;;4.47;;
62633;SDS011;48704;50.534;6.442;2023-01-19T10:56:15;16.48;;;4.97;;
62633;SDS011;48704;50.534;6.442;2023-01-19T10:58:45;10.57;;;3.60;;
62633;SDS011;48704;50.534;6.442;2023-01-19T11:03:45;11.18;;;5.15;;
62633;SDS011;48704;50.534;6.442;2023-01-19T11:08:40;9.18;;;4.88;;
62633;SDS011;48704;50.534;6.442;2023-01-19T11:11:07;10.32;;;5.13;;
62633;SDS011;48704;50.534;6.442;2023-01-19T11:13:34;12.95;;;5.07;;
62633;SDS011;48704;50.534;6.442;2023-01-19T11:16:19;12.00;;;4.47;;
62633;SDS011;48704;50.534;6.442;2023-01-19T11:18:51;13.15;;;5.30;;
62633;SDS011;48704;50.534;6.442;2023-01-19T11:21:20;15.88;;;4.93;;
62633;SDS011;48704;50.534;6.442;2023-01-19T11:23:49;14.50;;;5.35;;
62633;SDS011;48704;50.534;6.442;2023-01-19T11:26:24;12.13;;;5.30;;
62633;SDS011;48704;50.534;6.442;2023-01-19T11:28:55;11.23;;;4.70;;
62633;SDS011;48704;50.534;6.442;2023-01-19T11:31:32;15.43;;;4.20;;
62633;SDS011;48704;50.534;6.442;2023-01-19T11:34:21;7.70;;;4.03;;
62633;SDS011;48704;50.534;6.442;2023-01-19T11:37:04;15.98;;;4.95;;
62633;SDS011;48704;50.534;6.442;2023-01-19T11:39:55;11.00;;;4.85;;
62633;SDS011;48704;50.534;6.442;2023-01-19T11:42:22;8.82;;;3.13;;
62633;SDS011;48704;50.534;6.442;2023-01-19T11:44:59;10.18;;;4.22;;
62633;SDS011;48704;50.534;6.442;2023-01-19T11:47:29;10.40;;;4.30;;
62633;SDS011;48704;50.534;6.442;2023-01-19T11:50:11;15.93;;;4.95;;
62633;SDS011;48704;50.534;6.442;2023-01-19T11:53:00;9.48;;;4.35;;
62633;SDS011;48704;50.534;6.442;2023-01-19T11:55:46;11.02;;;4.43;;
62633;SDS011;48704;50.534;6.442;2023-01-19T11:58:17;9.32;;;4.63;;
62633;SDS011;48704;50.534;6.442;2023-01-19T12:00:44;8.75;;;4.35;;
62633;SDS011;48704;50.534;6.442;2023-01-19T12:03:22;15.00;;;5.25;;
62633;SDS011;48704;50.534;6.442;2023-01-19T12:05:55;8.32;;;3.75;;
62633;SDS011;48704;50.534;6.442;2023-01-19T12:08:26;12.43;;;4.95;;
62633;SDS011;48704;50.534;6.442;2023-01-19T12:10:59;14.73;;;4.90;;
62633;SDS011;48704;50.534;6.442;2023-01-19T12:13:27;14.32;;;5.32;;
62633;SDS011;48704;50.534;6.442;2023-01-19T12:18:33;14.90;;;4.95;;
62633;SDS011;48704;50.534;6.442;2023-01-19T12:21:02;14.77;;;4.82;;
62633;SDS011;48704;50.534;6.442;2023-01-19T12:23:42;9.02;;;4.07;;
62633;SDS011;48704;50.534;6.442;2023-01-19T12:29:02;13.02;;;5.47;;
62633;SDS011;48704;50.534;6.442;2023-01-19T12:31:30;14.35;;;4.22;;
62633;SDS011;48704;50.534;6.442;2023-01-19T12:34:01;9.68;;;3.58;;
62633;SDS011;48704;50.534;6.442;2023-01-19T12:36:51;8.77;;;4.07;;
62633;SDS011;48704;50.534;6.442;2023-01-19T12:39:20;11.52;;;4.95;;
62633;SDS011;48704;50.534;6.442;2023-01-19T12:41:47;6.70;;;4.28;;
62633;SDS011;48704;50.534;6.442;2023-01-19T12:44:13;12.77;;;4.88;;
62633;SDS011;48704;50.534;6.442;2023-01-19T12:52:09;16.38;;;5.75;;
62633;SDS011;48704;50.534;6.442;2023-01-19T12:55:21;12.77;;;5.82;;
62633;SDS011;48704;50.534;6.442;2023-01-19T12:57:49;10.10;;;4.85;;
62633;SDS011;48704;50.534;6.442;2023-01-19T13:02:48;15.10;;;5.32;;
62633;SDS011;48704;50.534;6.442;2023-01-19T13:13:18;7.22;;;4.25;;
62633;SDS011;48704;50.534;6.442;2023-01-19T13:15:47;8.90;;;4.60;;
62633;SDS011;48704;50.534;6.442;2023-01-19T13:18:19;10.98;;;4.93;;
62633;SDS011;48704;50.534;6.442;2023-01-19T13:20:58;10.77;;;5.25;;
62633;SDS011;48704;50.534;6.442;2023-01-19T13:26:15;12.75;;;5.25;;
62633;SDS011;48704;50.534;6.442;2023-01-19T13:28:42;16.63;;;5.82;;
62633;SDS011;48704;50.534;6.442;2023-01-19T13:31:10;8.68;;;3.85;;
62633;SDS011;48704;50.534;6.442;2023-01-19T13:33:38;10.00;;;4.70;;
62633;SDS011;48704;50.534;6.442;2023-01-19T13:36:20;14.40;;;4.32;;
62633;SDS011;48704;50.534;6.442;2023-01-19T13:38:50;10.15;;;4.78;;
62633;SDS011;48704;50.534;6.442;2023-01-19T13:41:17;14.13;;;5.05;;
62633;SDS011;48704;50.534;6.442;2023-01-19T13:43:44;10.07;;;4.72;;
62633;SDS011;48704;50.534;6.442;2023-01-19T13:46:11;10.52;;;5.32;;
62633;SDS011;48704;50.534;6.442;2023-01-19T13:48:38;12.85;;;4.00;;
62633;SDS011;48704;50.534;6.442;2023-01-19T13:51:05;8.73;;;3.88;;
62633;SDS011;48704;50.534;6.442;2023-01-19T13:53:32;8.27;;;4.32;;
62633;SDS011;48704;50.534;6.442;2023-01-19T13:56:05;7.90;;;3.47;;
62633;SDS011;48704;50.534;6.442;2023-01-19T13:58:31;7.13;;;3.65;;
62633;SDS011;48704;50.534;6.442;2023-01-19T14:00:56;9.55;;;4.03;;
62633;SDS011;48704;50.534;6.442;2023-01-19T14:03:22;8.68;;;3.45;;
62633;SDS011;48704;50.534;6.442;2023-01-19T14:05:49;8.25;;;3.47;;
62633;SDS011;48704;50.534;6.442;2023-01-19T14:08:16;6.20;;;3.00;;
62633;SDS011;48704;50.534;6.442;2023-01-19T14:13:21;10.80;;;4.90;;
62633;SDS011;48704;50.534;6.442;2023-01-19T14:15:47;10.38;;;4.57;;
62633;SDS011;48704;50.534;6.442;2023-01-19T14:20:40;6.93;;;4.05;;
62633;SDS011;48704;50.534;6.442;2023-01-19T14:23:28;7.75;;;4.22;;
62633;SDS011;48704;50.534;6.442;2023-01-19T14:32:03;8.65;;;3.33;;
62633;SDS011;48704;50.534;6.442;2023-01-19T14:34:52;11.75;;;3.33;;
62633;SDS011;48704;50.534;6.442;2023-01-19T14:37:43;5.88;;;3.15;;
62633;SDS011;48704;50.534;6.442;2023-01-19T14:42:37;11.73;;;3.40;;
62633;SDS011;48704;50.534;6.442;2023-01-19T14:45:29;6.72;;;3.28;;
62633;SDS011;48704;50.534;6.442;2023-01-19T14:48:01;11.85;;;3.58;;
62633;SDS011;48704;50.534;6.442;2023-01-19T14:50:31;6.22;;;2.88;;
62633;SDS011;48704;50.534;6.442;2023-01-19T14:53:16;6.35;;;3.03;;
62633;SDS011;48704;50.534;6.442;2023-01-19T14:55:44;7.40;;;3.30;;
62633;SDS011;48704;50.534;6.442;2023-01-19T14:58:15;7.70;;;2.85;;
62633;SDS011;48704;50.534;6.442;2023-01-19T15:00:43;5.05;;;2.47;;
62633;SDS011;48704;50.534;6.442;2023-01-19T15:03:09;10.07;;;4.03;;
62633;SDS011;48704;50.534;6.442;2023-01-19T15:05:38;8.93;;;3.85;;
62633;SDS011;48704;50.534;6.442;2023-01-19T15:08:05;5.50;;;2.85;;
62633;SDS011;48704;50.534;6.442;2023-01-19T15:10:31;7.22;;;2.97;;
62633;SDS011;48704;50.534;6.442;2023-01-19T15:12:58;5.50;;;2.90;;
62633;SDS011;48704;50.534;6.442;2023-01-19T15:15:31;7.38;;;3.88;;
62633;SDS011;48704;50.534;6.442;2023-01-19T15:17:58;10.15;;;4.07;;
62633;SDS011;48704;50.534;6.442;2023-01-19T15:20:26;9.43;;;3.80;;
62633;SDS011;48704;50.534;6.442;2023-01-19T15:22:51;10.25;;;3.72;;
62633;SDS011;48704;50.534;6.442;2023-01-19T15:25:18;7.57;;;3.92;;
62633;SDS011;48704;50.534;6.442;2023-01-19T15:27:45;7.35;;;4.05;;
62633;SDS011;48704;50.534;6.442;2023-01-19T15:30:12;9.98;;;3.78;;
62633;SDS011;48704;50.534;6.442;2023-01-19T15:32:48;10.65;;;3.70;;
62633;SDS011;48704;50.534;6.442;2023-01-19T15:35:14;7.03;;;3.83;;
62633;SDS011;48704;50.534;6.442;2023-01-19T15:37:41;18.58;;;4.25;;
62633;SDS011;48704;50.534;6.442;2023-01-19T15:40:07;9.77;;;3.53;;
62633;SDS011;48704;50.534;6.442;2023-01-19T15:42:33;11.82;;;3.88;;
62633;SDS011;48704;50.534;6.442;2023-01-19T15:45:26;8.10;;;3.72;;
62633;SDS011;48704;50.534;6.442;2023-01-19T15:47:56;5.85;;;2.67;;
62633;SDS011;48704;50.534;6.442;2023-01-19T15:50:22;11.02;;;3.40;;
62633;SDS011;48704;50.534;6.442;2023-01-19T15:52:49;8.23;;;3.50;;
62633;SDS011;48704;50.534;6.442;2023-01-19T15:55:14;7.30;;;3.35;;
62633;SDS011;48704;50.534;6.442;2023-01-19T15:57:40;6.70;;;3.03;;
62633;SDS011;48704;50.534;6.442;2023-01-19T16:00:06;8.18;;;3.38;;
62633;SDS011;48704;50.534;6.442;2023-01-19T16:02:32;9.55;;;3.50;;
62633;SDS011;48704;50.534;6.442;2023-01-19T16:04:57;9.15;;;3.38;;
62633;SDS011;48704;50.534;6.442;2023-01-19T16:07:22;5.35;;;2.97;;
62633;SDS011;48704;50.534;6.442;2023-01-19T16:09:47;8.75;;;4.03;;
62633;SDS011;48704;50.534;6.442;2023-01-19T16:12:14;10.00;;;2.88;;
62633;SDS011;48704;50.534;6.442;2023-01-19T16:14:39;7.18;;;2.85;;
62633;SDS011;48704;50.534;6.442;2023-01-19T16:17:04;4.93;;;3.00;;
62633;SDS011;48704;50.534;6.442;2023-01-19T16:19:30;7.13;;;2.53;;
62633;SDS011;48704;50.534;6.442;2023-01-19T16:21:55;8.00;;;2.70;;
62633;SDS011;48704;50.534;6.442;2023-01-19T16:24:21;4.20;;;2.58;;
62633;SDS011;48704;50.534;6.442;2023-01-19T16:26:46;8.48;;;2.55;;
62633;SDS011;48704;50.534;6.442;2023-01-19T16:29:12;5.18;;;2.40;;
62633;SDS011;48704;50.534;6.442;2023-01-19T16:31:38;5.53;;;2.70;;
62633;SDS011;48704;50.534;6.442;2023-01-19T16:34:04;3.33;;;1.88;;
62633;SDS011;48704;50.534;6.442;2023-01-19T16:36:30;6.47;;;2.50;;
62633;SDS011;48704;50.534;6.442;2023-01-19T16:38:57;7.18;;;2.60;;
62633;SDS011;48704;50.534;6.442;2023-01-19T16:41:28;8.05;;;2.15;;
62633;SDS011;48704;50.534;6.442;2023-01-19T16:43:54;5.18;;;2.53;;
62633;SDS011;48704;50.534;6.442;2023-01-19T16:46:22;5.50;;;3.08;;
62633;SDS011;48704;50.534;6.442;2023-01-19T16:48:49;7.38;;;2.70;;
62633;SDS011;48704;50.534;6.442;2023-01-19T16:51:16;9.00;;;2.67;;
62633;SDS011;48704;50.534;6.442;2023-01-19T16:53:42;9.48;;;2.95;;
62633;SDS011;48704;50.534;6.442;2023-01-19T16:56:08;5.22;;;2.85;;
62633;SDS011;48704;50.534;6.442;2023-01-19T16:58:35;6.47;;;2.38;;
62633;SDS011;48704;50.534;6.442;2023-01-19T17:01:09;11.23;;;3.60;;
62633;SDS011;48704;50.534;6.442;2023-01-19T17:03:36;5.65;;;2.03;;
62633;SDS011;48704;50.534;6.442;2023-01-19T17:06:02;5.45;;;2.40;;
62633;SDS011;48704;50.534;6.442;2023-01-19T17:08:28;5.47;;;2.00;;
62633;SDS011;48704;50.534;6.442;2023-01-19T17:10:54;3.60;;;2.00;;
62633;SDS011;48704;50.534;6.442;2023-01-19T17:13:20;9.68;;;2.70;;
62633;SDS011;48704;50.534;6.442;2023-01-19T17:15:45;5.25;;;2.40;;
62633;SDS011;48704;50.534;6.442;2023-01-19T17:18:10;4.68;;;2.38;;
62633;SDS011;48704;50.534;6.442;2023-01-19T17:20:36;9.27;;;2.35;;
62633;SDS011;48704;50.534;6.442;2023-01-19T17:23:01;7.72;;;2.30;;
62633;SDS011;48704;50.534;6.442;2023-01-19T17:25:26;3.58;;;1.88;;
62633;SDS011;48704;50.534;6.442;2023-01-19T17:27:52;5.22;;;2.17;;
62633;SDS011;48704;50.534;6.442;2023-01-19T17:30:17;4.43;;;2.30;;
62633;SDS011;48704;50.534;6.442;2023-01-19T17:32:42;8.27;;;3.15;;
62633;SDS011;48704;50.534;6.442;2023-01-19T17:35:08;6.63;;;2.97;;
62633;SDS011;48704;50.534;6.442;2023-01-19T17:37:34;3.80;;;2.03;;
62633;SDS011;48704;50.534;6.442;2023-01-19T17:39:59;6.15;;;2.38;;
62633;SDS011;48704;50.534;6.442;2023-01-19T17:42:24;3.13;;;1.90;;
62633;SDS011;48704;50.534;6.442;2023-01-19T17:44:50;5.90;;;2.22;;
62633;SDS011;48704;50.534;6.442;2023-01-19T17:47:15;8.23;;;2.25;;
62633;SDS011;48704;50.534;6.442;2023-01-19T17:49:40;4.28;;;2.58;;
62633;SDS011;48704;50.534;6.442;2023-01-19T17:52:05;5.70;;;2.55;;
62633;SDS011;48704;50.534;6.442;2023-01-19T17:54:31;5.68;;;2.65;;
62633;SDS011;48704;50.534;6.442;2023-01-19T17:56:56;5.13;;;2.40;;
62633;SDS011;48704;50.534;6.442;2023-01-19T17:59:21;4.95;;;2.45;;
62633;SDS011;48704;50.534;6.442;2023-01-19T18:01:46;6.75;;;2.60;;
62633;SDS011;48704;50.534;6.442;2023-01-19T18:04:12;4.75;;;2.58;;
62633;SDS011;48704;50.534;6.442;2023-01-19T18:06:37;8.02;;;3.08;;
62633;SDS011;48704;50.534;6.442;2023-01-19T18:09:03;8.02;;;3.35;;
62633;SDS011;48704;50.534;6.442;2023-01-19T18:11:30;7.72;;;3.33;;
62633;SDS011;48704;50.534;6.442;2023-01-19T18:13:56;6.30;;;3.15;;
62633;SDS011;48704;50.534;6.442;2023-01-19T18:16:23;9.10;;;3.30;;
62633;SDS011;48704;50.534;6.442;2023-01-19T18:18:49;9.70;;;3.10;;
62633;SDS011;48704;50.534;6.442;2023-01-19T18:21:17;10.57;;;3.38;;
62633;SDS011;48704;50.534;6.442;2023-01-19T18:23:44;5.85;;;3.20;;
62633;SDS011;48704;50.534;6.442;2023-01-19T18:26:11;6.18;;;3.05;;
62633;SDS011;48704;50.534;6.442;2023-01-19T18:28:40;7.00;;;3.45;;
62633;SDS011;48704;50.534;6.442;2023-01-19T18:31:09;6.60;;;3.42;;
62633;SDS011;48704;50.534;6.442;2023-01-19T18:33:36;6.82;;;3.47;;
62633;SDS011;48704;50.534;6.442;2023-01-19T18:36:02;7.90;;;3.65;;
62633;SDS011;48704;50.534;6.442;2023-01-19T18:38:28;7.40;;;3.83;;
62633;SDS011;48704;50.534;6.442;2023-01-19T18:41:00;9.95;;;3.58;;
62633;SDS011;48704;50.534;6.442;2023-01-19T18:43:27;9.65;;;4.03;;
62633;SDS011;48704;50.534;6.442;2023-01-19T18:45:52;12.25;;;3.72;;
62633;SDS011;48704;50.534;6.442;2023-01-19T18:48:17;7.88;;;3.58;;
62633;SDS011;48704;50.534;6.442;2023-01-19T18:50:43;9.00;;;4.75;;
62633;SDS011;48704;50.534;6.442;2023-01-19T18:53:08;8.02;;;3.28;;
62633;SDS011;48704;50.534;6.442;2023-01-19T18:55:33;7.40;;;3.78;;
62633;SDS011;48704;50.534;6.442;2023-01-19T18:58:00;11.25;;;3.45;;
62633;SDS011;48704;50.534;6.442;2023-01-19T19:00:25;9.20;;;4.05;;
62633;SDS011;48704;50.534;6.442;2023-01-19T19:02:50;12.68;;;4.07;;
62633;SDS011;48704;50.534;6.442;2023-01-19T19:05:17;12.05;;;4.50;;
62633;SDS011;48704;50.534;6.442;2023-01-19T19:07:42;10.57;;;3.92;;
62633;SDS011;48704;50.534;6.442;2023-01-19T19:10:08;6.32;;;3.42;;
62633;SDS011;48704;50.534;6.442;2023-01-19T19:12:33;8.10;;;3.47;;
62633;SDS011;48704;50.534;6.442;2023-01-19T19:14:59;7.20;;;3.45;;
62633;SDS011;48704;50.534;6.442;2023-01-19T19:17:24;8.93;;;3.78;;
62633;SDS011;48704;50.534;6.442;2023-01-19T19:19:50;9.05;;;3.90;;
62633;SDS011;48704;50.534;6.442;2023-01-19T19:22:15;7.88;;;3.35;;
62633;SDS011;48704;50.534;6.442;2023-01-19T19:24:40;7.85;;;3.40;;
62633;SDS011;48704;50.534;6.442;2023-01-19T19:27:05;8.00;;;3.80;;
62633;SDS011;48704;50.534;6.442;2023-01-19T19:29:31;9.82;;;3.58;;
62633;SDS011;48704;50.534;6.442;2023-01-19T19:31:57;7.10;;;3.45;;
62633;SDS011;48704;50.534;6.442;2023-01-19T19:34:22;4.82;;;2.90;;
62633;SDS011;48704;50.534;6.442;2023-01-19T19:36:48;6.10;;;3.53;;
62633;SDS011;48704;50.534;6.442;2023-01-19T19:39:14;7.32;;;3.83;;
62633;SDS011;48704;50.534;6.442;2023-01-19T19:41:40;7.97;;;3.53;;
62633;SDS011;48704;50.534;6.442;2023-01-19T19:44:07;8.93;;;3.42;;
62633;SDS011;48704;50.534;6.442;2023-01-19T19:46:35;7.70;;;3.38;;
62633;SDS011;48704;50.534;6.442;2023-01-19T19:49:01;9.32;;;4.13;;
62633;SDS011;48704;50.534;6.442;2023-01-19T19:51:26;8.32;;;3.13;;
62633;SDS011;48704;50.534;6.442;2023-01-19T19:53:55;9.27;;;3.10;;
62633;SDS011;48704;50.534;6.442;2023-01-19T19:56:26;8.23;;;3.42;;
62633;SDS011;48704;50.534;6.442;2023-01-19T19:58:53;9.27;;;3.90;;
62633;SDS011;48704;50.534;6.442;2023-01-19T20:01:21;7.35;;;3.50;;
62633;SDS011;48704;50.534;6.442;2023-01-19T20:03:48;7.25;;;3.47;;
62633;SDS011;48704;50.534;6.442;2023-01-19T20:06:15;11.50;;;4.10;;
62633;SDS011;48704;50.534;6.442;2023-01-19T20:08:44;10.18;;;3.80;;
62633;SDS011;48704;50.534;6.442;2023-01-19T20:11:10;8.80;;;3.78;;
62633;SDS011;48704;50.534;6.442;2023-01-19T20:13:37;9.85;;;3.92;;
62633;SDS011;48704;50.534;6.442;2023-01-19T20:16:05;8.32;;;3.97;;
62633;SDS011;48704;50.534;6.442;2023-01-19T20:18:35;11.23;;;3.88;;
62633;SDS011;48704;50.534;6.442;2023-01-19T20:21:11;8.38;;;3.25;;
62633;SDS011;48704;50.534;6.442;2023-01-19T20:23:39;10.70;;;4.15;;
62633;SDS011;48704;50.534;6.442;2023-01-19T20:26:05;9.43;;;4.05;;
62633;SDS011;48704;50.534;6.442;2023-01-19T20:28:32;9.65;;;4.70;;
62633;SDS011;48704;50.534;6.442;2023-01-19T20:31:12;11.85;;;4.28;;
62633;SDS011;48704;50.534;6.442;2023-01-19T20:33:39;11.40;;;4.63;;
62633;SDS011;48704;50.534;6.442;2023-01-19T20:36:05;11.45;;;4.88;;
62633;SDS011;48704;50.534;6.442;2023-01-19T20:38:31;12.00;;;4.72;;
62633;SDS011;48704;50.534;6.442;2023-01-19T20:40:56;14.45;;;5.75;;
62633;SDS011;48704;50.534;6.442;2023-01-19T20:43:22;11.25;;;5.18;;
62633;SDS011;48704;50.534;6.442;2023-01-19T20:45:47;12.85;;;6.00;;
62633;SDS011;48704;50.534;6.442;2023-01-19T20:48:12;11.77;;;5.13;;
62633;SDS011;48704;50.534;6.442;2023-01-19T20:50:38;12.02;;;5.63;;
62633;SDS011;48704;50.534;6.442;2023-01-19T20:53:03;14.93;;;7.22;;
62633;SDS011;48704;50.534;6.442;2023-01-19T20:55:28;12.27;;;6.60;;
62633;SDS011;48704;50.534;6.442;2023-01-19T20:57:54;12.48;;;5.90;;
62633;SDS011;48704;50.534;6.442;2023-01-19T21:00:19;13.77;;;6.55;;
62633;SDS011;48704;50.534;6.442;2023-01-19T21:02:44;14.50;;;6.68;;
62633;SDS011;48704;50.534;6.442;2023-01-19T21:05:10;21.10;;;6.15;;
62633;SDS011;48704;50.534;6.442;2023-01-19T21:07:35;15.82;;;7.82;;
62633;SDS011;48704;50.534;6.442;2023-01-19T21:10:00;11.57;;;5.65;;
62633;SDS011;48704;50.534;6.442;2023-01-19T21:12:26;15.13;;;6.93;;
62633;SDS011;48704;50.534;6.442;2023-01-19T21:14:51;13.55;;;6.68;;
62633;SDS011;48704;50.534;6.442;2023-01-19T21:17:16;18.17;;;7.97;;
62633;SDS011;48704;50.534;6.442;2023-01-19T21:19:41;18.58;;;7.65;;
62633;SDS011;48704;50.534;6.442;2023-01-19T21:22:07;15.75;;;7.38;;
62633;SDS011;48704;50.534;6.442;2023-01-19T21:24:32;18.85;;;7.57;;
62633;SDS011;48704;50.534;6.442;2023-01-19T21:26:57;19.52;;;7.75;;
62633;SDS011;48704;50.534;6.442;2023-01-19T21:29:22;19.88;;;7.72;;
62633;SDS011;48704;50.534;6.442;2023-01-19T21:31:48;18.52;;;8.00;;
62633;SDS011;48704;50.534;6.442;2023-01-19T21:34:13;16.98;;;8.15;;
62633;SDS011;48704;50.534;6.442;2023-01-19T21:36:39;23.10;;;7.93;;
62633;SDS011;48704;50.534;6.442;2023-01-19T21:39:04;17.23;;;6.97;;
62633;SDS011;48704;50.534;6.442;2023-01-19T21:41:32;23.38;;;8.25;;
62633;SDS011;48704;50.534;6.442;2023-01-19T21:43:59;18.02;;;7.55;;
62633;SDS011;48704;50.534;6.442;2023-01-19T21:46:26;22.23;;;8.73;;
62633;SDS011;48704;50.534;6.442;2023-01-19T21:48:56;25.55;;;9.63;;
62633;SDS011;48704;50.534;6.442;2023-01-19T21:51:22;17.73;;;8.07;;
62633;SDS011;48704;50.534;6.442;2023-01-19T21:53:48;17.45;;;9.27;;
62633;SDS011;48704;50.534;6.442;2023-01-19T21:56:14;20.15;;;8.45;;
62633;SDS011;48704;50.534;6.442;2023-01-19T21:58:40;19.10;;;8.57;;
62633;SDS011;48704;50.534;6.442;2023-01-19T22:01:06;16.92;;;8.13;;
62633;SDS011;48704;50.534;6.442;2023-01-19T22:03:37;24.30;;;8.38;;
62633;SDS011;48704;50.534;6.442;2023-01-19T22:06:03;24.42;;;9.68;;
62633;SDS011;48704;50.534;6.442;2023-01-19T22:08:33;24.88;;;8.73;;
62633;SDS011;48704;50.534;6.442;2023-01-19T22:11:05;23.42;;;9.30;;
62633;SDS011;48704;50.534;6.442;2023-01-19T22:13:32;21.40;;;8.63;;
62633;SDS011;48704;50.534;6.442;2023-01-19T22:15:59;27.58;;;9.82;;
62633;SDS011;48704;50.534;6.442;2023-01-19T22:18:28;25.30;;;8.73;;
62633;SDS011;48704;50.534;6.442;2023-01-19T22:20:53;20.23;;;9.27;;
62633;SDS011;48704;50.534;6.442;2023-01-19T22:23:19;20.70;;;8.32;;
62633;SDS011;48704;50.534;6.442;2023-01-19T22:25:44;17.67;;;8.00;;
62633;SDS011;48704;50.534;6.442;2023-01-19T22:28:09;18.42;;;8.15;;
62633;SDS011;48704;50.534;6.442;2023-01-19T22:30:35;22.25;;;9.10;;
62633;SDS011;48704;50.534;6.442;2023-01-19T22:33:00;19.63;;;7.05;;
62633;SDS011;48704;50.534;6.442;2023-01-19T22:35:25;21.23;;;8.93;;
62633;SDS011;48704;50.534;6.442;2023-01-19T22:37:51;18.75;;;7.93;;
62633;SDS011;48704;50.534;6.442;2023-01-19T22:40:16;18.95;;;7.88;;
62633;SDS011;48704;50.534;6.442;2023-01-19T22:42:45;22.48;;;7.72;;
62633;SDS011;48704;50.534;6.442;2023-01-19T22:45:11;17.67;;;7.60;;
62633;SDS011;48704;50.534;6.442;2023-01-19T22:47:36;20.40;;;8.38;;
62633;SDS011;48704;50.534;6.442;2023-01-19T22:50:02;18.42;;;7.88;;
62633;SDS011;48704;50.534;6.442;2023-01-19T22:52:27;17.33;;;7.78;;
62633;SDS011;48704;50.534;6.442;2023-01-19T22:54:52;21.20;;;8.10;;
62633;SDS011;48704;50.534;6.442;2023-01-19T22:57:20;17.98;;;6.90;;
62633;SDS011;48704;50.534;6.442;2023-01-19T22:59:46;15.02;;;7.03;;
62633;SDS011;48704;50.534;6.442;2023-01-19T23:02:11;18.73;;;7.78;;
62633;SDS011;48704;50.534;6.442;2023-01-19T23:04:37;13.95;;;6.50;;
62633;SDS011;48704;50.534;6.442;2023-01-19T23:07:03;21.63;;;7.30;;
62633;SDS011;48704;50.534;6.442;2023-01-19T23:09:31;16.88;;;6.32;;
62633;SDS011;48704;50.534;6.442;2023-01-19T23:11:58;16.60;;;6.53;;
62633;SDS011;48704;50.534;6.442;2023-01-19T23:14:23;14.27;;;6.60;;
62633;SDS011;48704;50.534;6.442;2023-01-19T23:16:49;16.98;;;7.25;;
62633;SDS011;48704;50.534;6.442;2023-01-19T23:19:14;14.70;;;6.25;;
62633;SDS011;48704;50.534;6.442;2023-01-19T23:21:41;16.90;;;6.60;;
62633;SDS011;48704;50.534;6.442;2023-01-19T23:24:07;14.55;;;5.85;;
62633;SDS011;48704;50.534;6.442;2023-01-19T23:26:32;17.08;;;6.28;;
62633;SDS011;48704;50.534;6.442;2023-01-19T23:29:11;16.73;;;6.75;;
62633;SDS011;48704;50.534;6.442;2023-01-19T23:31:39;15.20;;;6.15;;
62633;SDS011;48704;50.534;6.442;2023-01-19T23:34:07;15.40;;;6.82;;
62633;SDS011;48704;50.534;6.442;2023-01-19T23:36:35;16.92;;;6.78;;
62633;SDS011;48704;50.534;6.442;2023-01-19T23:39:06;15.98;;;5.63;;
62633;SDS011;48704;50.534;6.442;2023-01-19T23:41:36;15.70;;;7.13;;
62633;SDS011;48704;50.534;6.442;2023-01-19T23:44:01;13.50;;;5.82;;
62633;SDS011;48704;50.534;6.442;2023-01-19T23:46:27;16.25;;;5.90;;
62633;SDS011;48704;50.534;6.442;2023-01-19T23:48:53;16.13;;;5.97;;
62633;SDS011;48704;50.534;6.442;2023-01-19T23:51:19;16.83;;;6.45;;
62633;SDS011;48704;50.534;6.442;2023-01-19T23:53:46;17.42;;;7.03;;
62633;SDS011;48704;50.534;6.442;2023-01-19T23:56:13;21.08;;;6.40;;
62633;SDS011;48704;50.534;6.442;2023-01-19T23:58:44;16.75;;;6.78;;
